DLH5VV EDDM-LOWI
Flight info
| Callsign | DLH5VV |
|---|---|
| Flight time | N/A |
| Altitude | 15000 |
| Route | TURBU7W TURBU Y107 RTT RTT1B |
| Aircraft | A321/M-SDE3FGHIRWY/LB1 |
Departure
| Time | 2026-05-06 18:09 |
|---|---|
| Airport | Munich Airport (EDDM) |
Arrival
| Time | N/A |
|---|---|
| Airport | Innsbruck Airport (LOWI) |
| Time | Latitude | Longitude | Altitude | Speed | Heading |
|---|---|---|---|---|---|
| 2026-05-06 17:36 | 48.35355 | 11.79332 | 1474 ft | 0 kts | 263° |
| 2026-05-06 17:44 | 48.35355 | 11.79333 | 1486 ft | 0 kts | 263° |
| 2026-05-06 17:48 | 48.35356 | 11.79333 | 1486 ft | 0 kts | 263° |
| 2026-05-06 17:49 | 48.35355 | 11.79333 | 1486 ft | 0 kts | 263° |
| 2026-05-06 17:49 | 48.35356 | 11.79333 | 1486 ft | 0 kts | 263° |
| 2026-05-06 17:52 | 48.35356 | 11.79334 | 1486 ft | 0 kts | 263° |
| 2026-05-06 17:58 | 48.35356 | 11.79335 | 1485 ft | 1 kts | 263° |
| 2026-05-06 17:59 | 48.35358 | 11.79370 | 1454 ft | 4 kts | 263° |
| 2026-05-06 17:59 | 48.35361 | 11.79409 | 1479 ft | 4 kts | 262° |
| 2026-05-06 17:59 | 48.35369 | 11.79446 | 1475 ft | 4 kts | 229° |
| 2026-05-06 17:59 | 48.35389 | 11.79465 | 1473 ft | 3 kts | 178° |
| 2026-05-06 18:00 | 48.35410 | 11.79462 | 1474 ft | 4 kts | 173° |
| 2026-05-06 18:00 | 48.35415 | 11.79461 | 1475 ft | 2 kts | 173° |
| 2026-05-06 18:04 | 48.35408 | 11.79464 | 1473 ft | 5 kts | 163° |
| 2026-05-06 18:04 | 48.35343 | 11.79552 | 1479 ft | 17 kts | 134° |
| 2026-05-06 18:05 | 48.35235 | 11.79628 | 1478 ft | 18 kts | 174° |
| 2026-05-06 18:05 | 48.35130 | 11.79646 | 1481 ft | 15 kts | 173° |
| 2026-05-06 18:05 | 48.35047 | 11.79660 | 1484 ft | 12 kts | 173° |
| 2026-05-06 18:05 | 48.34960 | 11.79676 | 1479 ft | 13 kts | 173° |
| 2026-05-06 18:06 | 48.34890 | 11.79688 | 1486 ft | 5 kts | 173° |
| 2026-05-06 18:06 | 48.34849 | 11.79696 | 1482 ft | 7 kts | 171° |
| 2026-05-06 18:06 | 48.34809 | 11.79770 | 1478 ft | 14 kts | 91° |
| 2026-05-06 18:06 | 48.34821 | 11.79943 | 1485 ft | 18 kts | 84° |
| 2026-05-06 18:07 | 48.34822 | 11.80132 | 1476 ft | 18 kts | 116° |
| 2026-05-06 18:07 | 48.34729 | 11.80245 | 1480 ft | 18 kts | 176° |
| 2026-05-06 18:07 | 48.34607 | 11.80265 | 1481 ft | 13 kts | 173° |
| 2026-05-06 18:07 | 48.34578 | 11.80269 | 1476 ft | 0 kts | 174° |
| 2026-05-06 18:08 | 48.34552 | 11.80274 | 1482 ft | 12 kts | 174° |
| 2026-05-06 18:08 | 48.34454 | 11.80155 | 1486 ft | 29 kts | 263° |
| 2026-05-06 18:08 | 48.34418 | 11.79640 | 1486 ft | 82 kts | 263° |
| 2026-05-06 18:09 | 48.34328 | 11.78472 | 1487 ft | 140 kts | 263° |
| 2026-05-06 18:09 | 48.34183 | 11.76883 | 1906 ft | 156 kts | 262° |
| 2026-05-06 18:09 | 48.34054 | 11.75248 | 2693 ft | 158 kts | 264° |
| 2026-05-06 18:09 | 48.33932 | 11.73535 | 3172 ft | 174 kts | 264° |
| 2026-05-06 18:10 | 48.33634 | 11.71689 | 3493 ft | 192 kts | 240° |
| 2026-05-06 18:10 | 48.32503 | 11.70510 | 3996 ft | 214 kts | 200° |
| 2026-05-06 18:10 | 48.30999 | 11.70264 | 4741 ft | 221 kts | 186° |
| 2026-05-06 18:10 | 48.29456 | 11.70348 | 5494 ft | 225 kts | 176° |
| 2026-05-06 18:11 | 48.27973 | 11.71276 | 6147 ft | 245 kts | 149° |
| 2026-05-06 18:11 | 48.27043 | 11.72334 | 6332 ft | 261 kts | 148° |
| 2026-05-06 18:11 | 48.25527 | 11.73998 | 6699 ft | 278 kts | 149° |
| 2026-05-06 18:11 | 48.23927 | 11.75677 | 6806 ft | 280 kts | 150° |
| 2026-05-06 18:12 | 48.22321 | 11.77323 | 6835 ft | 280 kts | 150° |
| 2026-05-06 18:12 | 48.20711 | 11.78956 | 6837 ft | 279 kts | 150° |
| 2026-05-06 18:12 | 48.19092 | 11.80592 | 6998 ft | 284 kts | 151° |
| 2026-05-06 18:12 | 48.17381 | 11.81977 | 7814 ft | 277 kts | 164° |
| 2026-05-06 18:13 | 48.15564 | 11.82892 | 8631 ft | 276 kts | 166° |
| 2026-05-06 18:13 | 48.13738 | 11.83798 | 9448 ft | 277 kts | 166° |
| 2026-05-06 18:13 | 48.11907 | 11.84709 | 10195 ft | 278 kts | 166° |
| 2026-05-06 18:13 | 48.10060 | 11.85627 | 10878 ft | 281 kts | 166° |
| 2026-05-06 18:14 | 48.08149 | 11.86570 | 11163 ft | 300 kts | 165° |
| 2026-05-06 18:14 | 48.06089 | 11.87581 | 11294 ft | 322 kts | 165° |
| 2026-05-06 18:14 | 48.03893 | 11.88662 | 11416 ft | 342 kts | 165° |
| 2026-05-06 18:14 | 48.01573 | 11.89809 | 11637 ft | 357 kts | 165° |
| 2026-05-06 18:15 | 47.99251 | 11.90971 | 12721 ft | 343 kts | 165° |
| 2026-05-06 18:15 | 47.97070 | 11.92070 | 13904 ft | 314 kts | 165° |
| 2026-05-06 18:15 | 47.95120 | 11.93060 | 14382 ft | 280 kts | 166° |
| 2026-05-06 18:15 | 47.93340 | 11.93953 | 14587 ft | 265 kts | 168° |
| 2026-05-06 18:16 | 47.91570 | 11.94587 | 14771 ft | 260 kts | 176° |
| 2026-05-06 18:16 | 47.89785 | 11.94841 | 14822 ft | 256 kts | 183° |
| 2026-05-06 18:16 | 47.88010 | 11.94811 | 14828 ft | 255 kts | 185° |
| 2026-05-06 18:16 | 47.86235 | 11.94767 | 14829 ft | 255 kts | 185° |
| 2026-05-06 18:17 | 47.84463 | 11.94730 | 14826 ft | 255 kts | 185° |
| 2026-05-06 18:17 | 47.82690 | 11.94699 | 14825 ft | 255 kts | 185° |
| 2026-05-06 18:17 | 47.80917 | 11.94672 | 14817 ft | 254 kts | 184° |
| 2026-05-06 18:17 | 47.79153 | 11.94642 | 14821 ft | 253 kts | 185° |
| 2026-05-06 18:18 | 47.77390 | 11.94608 | 14761 ft | 255 kts | 185° |
| 2026-05-06 18:18 | 47.75616 | 11.94572 | 14444 ft | 253 kts | 185° |
| 2026-05-06 18:18 | 47.73867 | 11.94540 | 14201 ft | 249 kts | 185° |
| 2026-05-06 18:18 | 47.72137 | 11.94509 | 13961 ft | 249 kts | 185° |
| 2026-05-06 18:19 | 47.70408 | 11.94480 | 13726 ft | 248 kts | 184° |
| 2026-05-06 18:19 | 47.68680 | 11.94452 | 13465 ft | 248 kts | 185° |
| 2026-05-06 18:19 | 47.66955 | 11.94421 | 13189 ft | 247 kts | 185° |
| 2026-05-06 18:19 | 47.65247 | 11.94406 | 12928 ft | 246 kts | 180° |
| 2026-05-06 18:20 | 47.63604 | 11.95165 | 12808 ft | 256 kts | 151° |
| 2026-05-06 18:20 | 47.62375 | 11.97136 | 12810 ft | 271 kts | 123° |
| 2026-05-06 18:20 | 47.61788 | 11.99846 | 12810 ft | 281 kts | 107° |
| 2026-05-06 18:20 | 47.61437 | 12.02705 | 12806 ft | 283 kts | 104° |
| 2026-05-06 18:21 | 47.61112 | 12.05578 | 12804 ft | 282 kts | 104° |
| 2026-05-06 18:21 | 47.60787 | 12.08438 | 12803 ft | 281 kts | 105° |
| 2026-05-06 18:21 | 47.60478 | 12.11230 | 12795 ft | 269 kts | 104° |
| 2026-05-06 18:21 | 47.60186 | 12.13953 | 12794 ft | 267 kts | 104° |
| 2026-05-06 18:22 | 47.59895 | 12.16665 | 12802 ft | 267 kts | 104° |
| 2026-05-06 18:22 | 47.59599 | 12.19372 | 12801 ft | 266 kts | 104° |
| 2026-05-06 18:22 | 47.59315 | 12.22050 | 12775 ft | 268 kts | 105° |
| 2026-05-06 18:22 | 47.58943 | 12.24791 | 12389 ft | 263 kts | 118° |
| 2026-05-06 18:23 | 47.57955 | 12.26920 | 12043 ft | 244 kts | 147° |
| 2026-05-06 18:23 | 47.56540 | 12.27930 | 11804 ft | 220 kts | 171° |
| 2026-05-06 18:23 | 47.55036 | 12.28413 | 11807 ft | 222 kts | 174° |
| 2026-05-06 18:23 | 47.53490 | 12.28850 | 11793 ft | 223 kts | 174° |
| 2026-05-06 18:24 | 47.51966 | 12.29282 | 11794 ft | 223 kts | 174° |
| 2026-05-06 18:24 | 47.50462 | 12.29522 | 11792 ft | 217 kts | 190° |
| 2026-05-06 18:24 | 47.49063 | 12.28849 | 11793 ft | 212 kts | 214° |
| 2026-05-06 18:24 | 47.48026 | 12.27288 | 11696 ft | 213 kts | 239° |
| 2026-05-06 18:25 | 47.47343 | 12.25340 | 11459 ft | 213 kts | 241° |
| 2026-05-06 18:25 | 47.46671 | 12.23391 | 11209 ft | 212 kts | 241° |
| 2026-05-06 18:25 | 47.46015 | 12.21486 | 10944 ft | 207 kts | 241° |
| 2026-05-06 18:25 | 47.45368 | 12.19612 | 10713 ft | 203 kts | 240° |
| 2026-05-06 18:26 | 47.44736 | 12.17781 | 10487 ft | 196 kts | 240° |
| 2026-05-06 18:26 | 47.44132 | 12.16031 | 10245 ft | 189 kts | 240° |
| 2026-05-06 18:26 | 47.43530 | 12.14295 | 9997 ft | 187 kts | 240° |
| 2026-05-06 18:26 | 47.42940 | 12.12596 | 9853 ft | 186 kts | 240° |
| 2026-05-06 18:27 | 47.42349 | 12.10897 | 9735 ft | 186 kts | 240° |
| 2026-05-06 18:27 | 47.41759 | 12.09197 | 9606 ft | 186 kts | 240° |
| 2026-05-06 18:27 | 47.41181 | 12.07525 | 9476 ft | 185 kts | 240° |
| 2026-05-06 18:27 | 47.40589 | 12.05820 | 9478 ft | 184 kts | 240° |
| 2026-05-06 18:28 | 47.40008 | 12.04151 | 9503 ft | 186 kts | 240° |
| 2026-05-06 18:28 | 47.39419 | 12.02456 | 9507 ft | 186 kts | 240° |
| 2026-05-06 18:28 | 47.38827 | 12.00760 | 9509 ft | 186 kts | 239° |
| 2026-05-06 18:28 | 47.38233 | 11.99061 | 9492 ft | 186 kts | 238° |
| 2026-05-06 18:29 | 47.37628 | 11.97335 | 9503 ft | 191 kts | 239° |
| 2026-05-06 18:29 | 47.37016 | 11.95588 | 9499 ft | 192 kts | 240° |
| 2026-05-06 18:29 | 47.36405 | 11.93840 | 9500 ft | 192 kts | 239° |
| 2026-05-06 18:29 | 47.35795 | 11.92086 | 9510 ft | 193 kts | 240° |
| 2026-05-06 18:30 | 47.35182 | 11.90326 | 9505 ft | 192 kts | 240° |
| 2026-05-06 18:30 | 47.34574 | 11.88582 | 9507 ft | 190 kts | 239° |
| 2026-05-06 18:30 | 47.33963 | 11.86843 | 9512 ft | 192 kts | 239° |
| 2026-05-06 18:30 | 47.33356 | 11.85092 | 9510 ft | 192 kts | 242° |
| 2026-05-06 18:31 | 47.32865 | 11.83252 | 9508 ft | 192 kts | 245° |
| 2026-05-06 18:31 | 47.32430 | 11.81390 | 9505 ft | 193 kts | 250° |
| 2026-05-06 18:31 | 47.32102 | 11.79457 | 9230 ft | 194 kts | 253° |
| 2026-05-06 18:31 | 47.31825 | 11.77516 | 8915 ft | 195 kts | 255° |
| 2026-05-06 18:32 | 47.31555 | 11.75548 | 8575 ft | 196 kts | 255° |
| 2026-05-06 18:32 | 47.31286 | 11.73568 | 8238 ft | 197 kts | 255° |
| 2026-05-06 18:32 | 47.31018 | 11.71596 | 7911 ft | 195 kts | 255° |
| 2026-05-06 18:32 | 47.30754 | 11.69644 | 7583 ft | 193 kts | 254° |
| 2026-05-06 18:33 | 47.30489 | 11.67704 | 7261 ft | 194 kts | 256° |
| 2026-05-06 18:33 | 47.30224 | 11.65759 | 6958 ft | 195 kts | 256° |
| 2026-05-06 18:33 | 47.29958 | 11.63810 | 6636 ft | 193 kts | 257° |
| 2026-05-06 18:33 | 47.29693 | 11.61865 | 6330 ft | 193 kts | 255° |
| 2026-05-06 18:34 | 47.29427 | 11.59925 | 6010 ft | 193 kts | 256° |
| 2026-05-06 18:34 | 47.29163 | 11.57992 | 5679 ft | 192 kts | 257° |
| 2026-05-06 18:34 | 47.28897 | 11.56058 | 5353 ft | 193 kts | 258° |
| 2026-05-06 18:34 | 47.28631 | 11.54115 | 5021 ft | 194 kts | 256° |
| 2026-05-06 18:35 | 47.28363 | 11.52169 | 4684 ft | 195 kts | 257° |
| 2026-05-06 18:35 | 47.28095 | 11.50221 | 4368 ft | 195 kts | 257° |
| 2026-05-06 18:35 | 47.27826 | 11.48270 | 4054 ft | 193 kts | 257° |
| 2026-05-06 18:35 | 47.27566 | 11.46385 | 3745 ft | 182 kts | 258° |
| 2026-05-06 18:36 | 47.27323 | 11.44625 | 3462 ft | 169 kts | 258° |
| 2026-05-06 18:36 | 47.27097 | 11.42997 | 3189 ft | 156 kts | 257° |
| 2026-05-06 18:36 | 47.26886 | 11.41471 | 2934 ft | 149 kts | 258° |
| 2026-05-06 18:36 | 47.26680 | 11.39984 | 2688 ft | 148 kts | 256° |
| 2026-05-06 18:37 | 47.26473 | 11.38494 | 2424 ft | 150 kts | 256° |
| 2026-05-06 18:37 | 47.26257 | 11.36953 | 2185 ft | 160 kts | 257° |